createdAt,value
2019-02-28T00:01:31.327Z,100247.04
2019-02-28T00:06:34.796Z,100240.55
2019-02-28T00:11:39.457Z,100228.67
2019-02-28T00:16:43.606Z,100221.36
2019-02-28T00:21:47.069Z,100200.15
2019-02-28T00:26:50.529Z,100164.45
2019-02-28T00:31:53.989Z,100164.45
2019-02-28T00:36:57.457Z,100169.27
2019-02-28T00:42:00.924Z,100164.70
2019-02-28T00:47:04.549Z,100163.91
2019-02-28T00:52:08.010Z,100159.56
2019-02-28T00:57:11.469Z,100149.86
2019-02-28T01:02:17.639Z,100141.54
2019-02-28T01:07:20.191Z,100140.94
2019-02-28T01:12:23.648Z,100133.81
2019-02-28T01:17:27.452Z,100133.03
2019-02-28T01:22:30.945Z,100125.31
2019-02-28T01:27:34.404Z,100124.53
2019-02-28T01:32:38.233Z,100127.12
2019-02-28T01:37:41.694Z,100114.48
2019-02-28T01:42:45.152Z,100109.69
2019-02-28T01:47:51.693Z,100104.23
2019-02-28T01:52:53.797Z,100109.36
2019-02-28T01:57:57.268Z,100098.68
2019-02-28T02:03:00.726Z,100086.02
2019-02-28T02:08:07.310Z,100066.00
2019-02-28T02:13:09.373Z,100062.27
2019-02-28T02:18:12.841Z,100057.92
2019-02-28T02:23:18.065Z,100048.22
2019-02-28T02:28:26.818Z,100045.27
2019-02-28T02:33:26.666Z,100036.19
2019-02-28T02:38:30.128Z,100023.53
2019-02-28T02:43:33.595Z,100023.71
2019-02-28T02:48:38.551Z,100020.58
2019-02-28T02:53:43.389Z,100010.27
2019-02-28T02:58:46.979Z,100004.12
2019-02-28T03:03:50.446Z,99995.44
2019-02-28T03:08:53.889Z,99996.82
2019-02-28T03:13:57.345Z,99986.16
2019-02-28T03:19:00.803Z,99980.61
2019-02-28T03:24:04.260Z,99967.34
2019-02-28T03:29:08.933Z,99958.84
2019-02-28T03:34:14.108Z,99962.41
2019-02-28T03:39:24.111Z,99942.21
2019-02-28T03:44:22.989Z,99940.83
2019-02-28T03:49:26.452Z,99949.75
2019-02-28T03:54:30.262Z,99938.50
2019-02-28T03:59:33.686Z,99935.55
2019-02-28T04:04:37.142Z,99935.55
2019-02-28T04:09:44.146Z,99925.96
2019-02-28T04:14:45.777Z,99928.62
2019-02-28T04:19:49.235Z,99933.56
2019-02-28T04:24:52.696Z,99930.61
2019-02-28T04:29:56.144Z,99928.41
2019-02-28T04:34:59.599Z,99924.85
2019-02-28T04:40:03.139Z,99923.47
2019-02-28T04:45:11.835Z,99927.84
2019-02-28T04:50:15.295Z,99920.09
2019-02-28T04:55:18.755Z,99903.67
2019-02-28T05:00:22.208Z,99903.85
2019-02-28T05:05:25.745Z,99893.75
2019-02-28T05:10:29.200Z,99893.18
2019-02-28T05:15:37.337Z,99885.86
2019-02-28T05:20:37.846Z,99882.48
2019-02-28T05:25:41.321Z,99881.52
2019-02-28T05:30:44.775Z,99875.38
2019-02-28T05:35:48.244Z,99870.43
2019-02-28T05:40:51.698Z,99875.19
2019-02-28T05:45:55.164Z,99882.73
2019-02-28T05:50:58.620Z,99884.11
2019-02-28T05:56:02.084Z,99871.48
2019-02-28T06:01:05.681Z,99865.77
2019-02-28T06:06:09.147Z,99863.59
2019-02-28T06:11:12.615Z,99866.78
2019-02-28T06:16:16.066Z,99870.52
2019-02-28T06:21:19.529Z,99864.20
2019-02-28T06:26:22.986Z,99858.47
2019-02-28T06:31:26.443Z,99857.69
2019-02-28T06:36:29.969Z,99864.61
2019-02-28T06:41:33.434Z,99870.77
2019-02-28T06:46:39.866Z,99873.53
2019-02-28T06:51:42.075Z,99875.09
2019-02-28T06:56:45.538Z,99883.23
2019-02-28T07:01:48.998Z,99884.63
2019-02-28T07:06:52.459Z,99881.67
2019-02-28T07:11:55.917Z,99888.00
2019-02-28T07:16:59.378Z,99886.61
2019-02-28T07:22:02.843Z,99875.52
2019-02-28T07:27:06.301Z,99881.25
2019-02-28T07:32:09.759Z,99884.29
2019-02-28T07:37:13.213Z,99885.05
2019-02-28T07:42:16.674Z,99887.73
2019-02-28T07:47:20.123Z,99877.00
2019-02-28T07:52:23.585Z,99877.36
2019-02-28T07:57:27.046Z,99876.67
2019-02-28T08:02:30.500Z,99869.31
2019-02-28T08:07:33.980Z,99870.45
2019-02-28T08:12:37.420Z,99867.23
2019-02-28T08:17:43.864Z,99866.02
2019-02-28T08:22:46.067Z,99872.42
2019-02-28T08:27:49.600Z,99859.75
2019-02-28T08:32:53.072Z,99850.96
2019-02-28T08:37:57.384Z,99840.00
2019-02-28T08:43:00.988Z,99844.61
2019-02-28T08:48:04.437Z,99849.97
2019-02-28T08:53:07.901Z,99833.78
2019-02-28T08:58:11.360Z,99834.94
2019-02-28T09:03:14.825Z,99839.14
2019-02-28T09:08:18.281Z,99840.22
2019-02-28T09:13:21.740Z,99848.44
2019-02-28T09:18:25.209Z,99845.62
2019-02-28T09:23:28.737Z,99839.99
2019-02-28T09:28:32.191Z,99830.25
2019-02-28T09:33:35.653Z,99840.82
2019-02-28T09:38:39.116Z,99829.08
2019-02-28T09:43:42.568Z,99833.75
2019-02-28T09:48:46.033Z,99839.84
2019-02-28T09:53:50.282Z,99828.67
2019-02-28T09:58:54.429Z,99839.52
2019-02-28T10:03:57.895Z,99839.52
2019-02-28T10:09:01.361Z,99836.73
2019-02-28T10:14:07.609Z,99838.48
2019-02-28T10:19:13.392Z,99835.45
2019-02-28T10:24:16.253Z,99836.59
2019-02-28T10:29:19.708Z,99836.17
2019-02-28T10:34:23.410Z,99839.13
2019-02-28T10:39:28.365Z,99837.29
2019-02-28T10:44:31.821Z,99839.22
2019-02-28T10:49:35.283Z,99814.70
2019-02-28T10:54:38.740Z,99829.09
2019-02-28T10:59:42.196Z,99840.45
2019-02-28T11:04:45.652Z,99843.31
2019-02-28T11:09:49.495Z,99834.36
2019-02-28T11:14:52.965Z,99825.77
2019-02-28T11:19:56.421Z,99821.80
2019-02-28T11:25:00.940Z,99814.86
2019-02-28T11:30:17.894Z,99806.12
2019-02-28T11:35:23.161Z,99803.11
2019-02-28T11:40:29.217Z,99810.22
2019-02-28T11:45:37.147Z,99806.14
2019-02-28T11:50:42.606Z,99797.58
2019-02-28T11:55:45.863Z,99792.18
2019-02-28T12:00:49.328Z,99795.13
2019-02-28T12:05:52.874Z,99789.16
2019-02-28T12:10:58.453Z,99780.06
2019-02-28T12:16:01.526Z,99790.72
2019-02-28T12:21:05.156Z,99793.50
2019-02-28T12:26:08.618Z,99789.94
2019-02-28T12:31:12.560Z,99790.30
2019-02-28T12:36:16.008Z,99786.31
2019-02-28T12:41:21.723Z,99778.33
2019-02-28T12:46:24.716Z,99780.92
2019-02-28T12:51:28.245Z,99774.34
2019-02-28T12:56:31.705Z,99775.91
2019-02-28T13:01:35.166Z,99781.45
2019-02-28T13:06:38.628Z,99787.00
2019-02-28T13:11:42.087Z,99770.72
2019-02-28T13:16:45.543Z,99768.12
2019-02-28T13:21:49.010Z,99765.67
2019-02-28T13:26:52.481Z,99767.06
2019-02-28T13:31:57.716Z,99760.13
2019-02-28T13:37:03.176Z,99755.55
2019-02-28T13:42:06.433Z,99751.56
2019-02-28T13:47:10.822Z,99754.33
2019-02-28T13:52:18.886Z,99736.48
2019-02-28T13:57:19.753Z,99730.51
2019-02-28T14:02:26.314Z,99736.05
2019-02-28T14:07:30.206Z,99731.89
2019-02-28T14:12:33.629Z,99737.77
2019-02-28T14:17:37.278Z,99730.69
2019-02-28T14:22:42.746Z,99735.09
2019-02-28T14:27:45.958Z,99726.24
2019-02-28T14:32:49.434Z,99729.80
2019-02-28T14:37:55.893Z,99735.70
2019-02-28T14:42:58.105Z,99748.61
2019-02-28T14:48:04.363Z,99746.80
2019-02-28T14:53:06.862Z,99754.59
2019-02-28T14:58:10.340Z,99755.19
2019-02-28T15:03:14.879Z,99755.97
2019-02-28T15:08:18.559Z,99750.42
2019-02-28T15:13:22.102Z,99746.27
2019-02-28T15:18:25.951Z,99741.32
2019-02-28T15:23:30.794Z,99745.84
2019-02-28T15:28:34.639Z,99746.80
2019-02-28T15:33:38.117Z,99750.17
2019-02-28T15:38:41.867Z,99743.84
2019-02-28T15:43:47.171Z,99739.69
2019-02-28T15:48:50.650Z,99739.69
2019-02-28T15:53:54.133Z,99741.07
2019-02-28T15:58:57.604Z,99740.11
2019-02-28T16:04:01.086Z,99738.12
2019-02-28T16:09:06.592Z,99743.48
2019-02-28T16:14:14.505Z,99742.10
2019-02-28T16:19:15.270Z,99744.88
2019-02-28T16:24:18.743Z,99748.86
2019-02-28T16:29:22.216Z,99754.09
2019-02-28T16:34:25.688Z,99751.92
2019-02-28T16:39:29.160Z,99755.30
2019-02-28T16:44:32.642Z,99753.91
2019-02-28T16:49:36.118Z,99769.16
2019-02-28T16:54:39.593Z,99758.32
2019-02-28T16:59:43.077Z,99749.57
2019-02-28T17:04:48.644Z,99759.45
2019-02-28T17:09:51.754Z,99763.77
2019-02-28T17:14:55.238Z,99776.53
2019-02-28T17:19:58.728Z,99773.16
2019-02-28T17:25:02.213Z,99780.41
2019-02-28T17:30:10.741Z,99786.24
2019-02-28T17:35:14.473Z,99791.02
2019-02-28T17:40:17.934Z,99797.16
2019-02-28T17:45:23.835Z,99786.56
2019-02-28T17:50:39.371Z,99791.08
2019-02-28T17:55:47.128Z,99798.80
2019-02-28T18:01:13.259Z,99802.61
2019-02-28T18:06:34.564Z,99816.31
2019-02-28T18:11:43.881Z,99810.76
2019-02-28T18:17:08.297Z,99810.16
2019-02-28T18:22:29.893Z,99810.76
2019-02-28T18:27:43.707Z,99812.92
2019-02-28T18:32:47.676Z,99817.55
2019-02-28T18:37:51.212Z,99820.14
2019-02-28T18:42:54.679Z,99816.16
2019-02-28T18:47:58.141Z,99814.92
2019-02-28T18:53:01.600Z,99816.48
2019-02-28T18:58:05.201Z,99814.92
2019-02-28T19:03:08.672Z,99814.92
2019-02-28T19:08:13.671Z,99802.61
2019-02-28T19:13:17.135Z,99810.00
2019-02-28T19:18:20.607Z,99807.23
2019-02-28T19:23:24.084Z,99812.92
2019-02-28T19:28:27.565Z,99817.09
2019-02-28T19:33:31.042Z,99821.86
2019-02-28T19:38:34.501Z,99824.81
2019-02-28T19:43:37.961Z,99828.19
2019-02-28T19:48:41.426Z,99821.71
2019-02-28T19:53:44.890Z,99827.86
2019-02-28T19:58:48.350Z,99827.86
2019-02-28T20:03:51.811Z,99835.58
2019-02-28T20:08:55.271Z,99841.13
2019-02-28T20:13:58.726Z,99846.50
2019-02-28T20:19:02.353Z,99842.77
2019-02-28T20:24:07.539Z,99847.89
2019-02-28T20:29:11.001Z,99842.95
2019-02-28T20:34:14.456Z,99835.23
2019-02-28T20:39:17.911Z,99839.21
2019-02-28T20:44:21.382Z,99832.87
2019-02-28T20:49:24.843Z,99836.86
2019-02-28T20:54:28.300Z,99835.91
2019-02-28T20:59:31.770Z,99840.84
2019-02-28T21:04:36.322Z,99843.47
2019-02-28T21:09:45.008Z,99814.77
2019-02-28T21:14:45.044Z,99812.78
2019-02-28T21:19:48.499Z,99815.98
2019-02-28T21:24:51.956Z,99829.67
2019-02-28T21:29:55.418Z,99844.33
2019-02-28T21:34:58.877Z,99855.24
2019-02-28T21:40:02.341Z,99845.78
2019-02-28T21:45:09.164Z,99848.73
2019-02-28T21:50:15.037Z,99850.58
2019-02-28T21:55:18.659Z,99852.72
2019-02-28T22:00:24.798Z,99849.80
2019-02-28T22:05:28.257Z,99837.12
2019-02-28T22:10:31.718Z,99834.78
2019-02-28T22:15:35.197Z,99827.24
2019-02-28T22:20:38.664Z,99824.29
2019-02-28T22:25:42.122Z,99826.89
2019-02-28T22:30:47.221Z,99829.84
2019-02-28T22:36:10.318Z,99820.73
2019-02-28T22:41:13.773Z,99821.95
2019-02-28T22:46:17.599Z,99825.33
2019-02-28T22:51:21.066Z,99819.17
2019-02-28T22:56:24.512Z,99817.60
2019-02-28T23:01:28.411Z,99820.98
2019-02-28T23:06:31.865Z,99812.84
2019-02-28T23:11:35.325Z,99807.72
2019-02-28T23:16:38.785Z,99802.17
2019-02-28T23:21:42.246Z,99796.63
2019-02-28T23:27:15.292Z,99793.09
2019-02-28T23:32:27.567Z,99793.84
2019-02-28T23:37:31.026Z,99788.94
2019-02-28T23:42:34.479Z,99777.66
2019-02-28T23:47:37.943Z,99778.45
2019-02-28T23:52:41.397Z,99769.94
2019-02-28T23:57:44.852Z,99768.02
